Time;durP1;ratioP1;P1;durP2;ratioP2;P2;SDS_P1;SDS_P2;PMS_P1;PMS_P2;Temp;Humidity;BMP_temperature;BMP_pressure;BME280_temperature;BME280_humidity;BME280_pressure;Samples;Min_cycle;Max_cycle;Signal;HPM_P1;HPM_P2
2023/04/03 00:01:16;;;;;;;3.20;2.90;;;;;;;11.55;78.44;100510.16;4976022;28;20065;-72
2023/04/03 00:03:45;;;;;;;3.33;2.90;;;;;;;11.48;79.22;100510.47;4975368;28;20051;-72
2023/04/03 00:06:13;;;;;;;3.53;2.47;;;;;;;11.51;77.73;100509.91;4975738;28;20038;-72
2023/04/03 00:08:41;;;;;;;4.05;2.55;;;;;;;11.48;78.40;100505.00;4975829;28;20061;-72
2023/04/03 00:11:09;;;;;;;2.83;2.20;;;;;;;11.56;77.12;100509.88;4975850;28;20051;-72
2023/04/03 00:13:38;;;;;;;2.50;2.10;;;;;;;11.69;75.23;100496.59;4974946;28;20046;-72
2023/04/03 00:16:08;;;;;;;2.17;1.83;;;;;;;11.73;74.96;100505.06;4974994;28;20046;-72
2023/04/03 00:18:36;;;;;;;2.58;1.95;;;;;;;11.72;74.64;100497.94;4981447;28;20051;-72
2023/04/03 00:21:05;;;;;;;2.83;2.00;;;;;;;11.71;74.51;100499.84;4977249;28;20047;-73
2023/04/03 00:23:34;;;;;;;2.28;2.08;;;;;;;11.70;73.83;100507.25;4975648;28;20492;-72
2023/04/03 00:26:02;;;;;;;2.95;1.83;;;;;;;11.65;76.08;100501.00;4958615;28;20086;-72
2023/04/03 00:28:30;;;;;;;1.50;1.38;;;;;;;11.44;76.34;100492.97;4971412;28;20051;-72
2023/04/03 00:30:57;;;;;;;2.53;1.75;;;;;;;11.30;77.27;100498.31;4958737;28;20058;-72
2023/04/03 00:33:25;;;;;;;4.85;2.20;;;;;;;11.19;80.63;100497.56;4973778;28;20047;-72
2023/04/03 00:35:53;;;;;;;4.10;2.28;;;;;;;11.14;79.94;100494.84;4975173;28;20055;-73
2023/04/03 00:38:22;;;;;;;2.10;1.90;;;;;;;11.13;79.79;100494.06;4975856;28;20070;-72
2023/04/03 00:40:49;;;;;;;3.70;2.47;;;;;;;11.09;79.85;100486.72;4974254;28;20494;-72
2023/04/03 00:43:23;;;;;;;3.83;2.10;;;;;;;11.01;81.12;100491.66;4975107;28;20050;-72
2023/04/03 00:45:57;;;;;;;3.17;2.63;;;;;;;10.90;80.83;100490.09;4976188;28;20069;-72
2023/04/03 00:48:28;;;;;;;4.90;2.20;;;;;;;10.80;82.08;100490.19;4975572;28;20042;-73
2023/04/03 00:50:58;;;;;;;2.28;1.98;;;;;;;10.52;83.02;100489.78;4975558;28;20058;-72
2023/04/03 00:53:32;;;;;;;3.17;2.50;;;;;;;10.48;83.51;100484.06;4957754;28;20055;-72
2023/04/03 00:56:00;;;;;;;4.07;2.75;;;;;;;10.39;84.27;100489.28;4957361;28;20046;-72
2023/04/03 00:58:42;;;;;;;4.65;2.50;;;;;;;10.38;84.63;100490.38;4973979;28;20042;-73
2023/04/03 01:01:15;;;;;;;5.05;2.70;;;;;;;10.29;85.59;100486.59;4974663;28;20059;-72
2023/04/03 01:03:43;;;;;;;4.60;3.08;;;;;;;10.25;85.99;100485.50;4974646;28;20050;-72
2023/04/03 01:06:14;;;;;;;5.05;3.03;;;;;;;10.24;86.13;100490.16;4957633;28;20410;-72
2023/04/03 01:08:42;;;;;;;3.58;2.92;;;;;;;10.25;86.97;100482.75;4940946;28;20525;-72
2023/04/03 01:11:10;;;;;;;4.90;2.80;;;;;;;10.26;86.88;100481.69;4974051;28;20737;-72
2023/04/03 01:13:39;;;;;;;3.85;2.95;;;;;;;10.34;84.08;100481.09;4958260;28;20051;-72
2023/04/03 01:16:07;;;;;;;3.40;2.45;;;;;;;10.36;83.79;100487.09;4973390;28;20043;-72
2023/04/03 01:18:38;;;;;;;4.35;2.78;;;;;;;10.50;83.33;100481.06;4957226;28;20051;-73
2023/04/03 01:21:30;;;;;;;4.38;2.72;;;;;;;10.61;83.55;100485.38;4974433;28;20047;-72
2023/04/03 01:24:38;;;;;;;3.88;2.85;;;;;;;10.53;84.53;100478.56;4967943;28;20050;-72
2023/04/03 01:27:11;;;;;;;4.57;2.67;;;;;;;10.36;84.63;100481.63;4967996;28;20051;-72
2023/04/03 01:29:43;;;;;;;3.53;2.72;;;;;;;10.37;84.24;100477.81;4940285;28;20058;-73
2023/04/03 01:32:11;;;;;;;4.82;2.85;;;;;;;10.18;84.47;100483.09;4972893;28;20055;-72
2023/04/03 01:34:41;;;;;;;4.47;2.70;;;;;;;10.19;82.72;100482.81;4969537;28;20490;-72
2023/04/03 01:37:09;;;;;;;4.53;2.90;;;;;;;10.18;83.68;100481.16;4975002;28;20493;-72
2023/04/03 01:39:37;;;;;;;4.22;2.78;;;;;;;10.16;83.44;100479.81;4973426;28;20043;-72
2023/04/03 01:42:05;;;;;;;3.08;2.67;;;;;;;10.12;82.20;100486.94;4957468;28;20047;-72
2023/04/03 01:44:38;;;;;;;3.58;2.78;;;;;;;10.04;82.75;100475.47;4972861;28;20037;-72
2023/04/03 01:47:07;;;;;;;3.13;2.63;;;;;;;10.05;82.01;100476.28;4974316;28;20496;-72
2023/04/03 01:49:36;;;;;;;3.42;2.47;;;;;;;10.05;82.99;100481.75;4973159;28;20047;-72
2023/04/03 01:52:04;;;;;;;6.00;3.20;;;;;;;10.03;83.47;100481.22;4957127;28;20370;-72
2023/04/03 01:54:32;;;;;;;4.72;3.20;;;;;;;10.03;83.05;100471.09;4972927;28;20043;-72
2023/04/03 01:57:00;;;;;;;3.38;2.70;;;;;;;10.04;82.63;100480.13;4956538;28;20050;-72
2023/04/03 01:59:28;;;;;;;3.78;3.08;;;;;;;9.98;84.51;100473.03;4956496;28;20039;-72
2023/04/03 02:01:56;;;;;;;3.13;2.53;;;;;;;9.91;85.84;100476.88;4972129;28;20042;-72
2023/04/03 02:04:24;;;;;;;4.22;2.92;;;;;;;9.91;85.80;100476.88;4973854;28;20047;-72
2023/04/03 02:06:52;;;;;;;3.58;3.03;;;;;;;9.86;86.62;100474.16;4977728;28;20053;-72
2023/04/03 02:09:20;;;;;;;5.18;3.45;;;;;;;9.85;86.63;100472.53;4977630;28;20051;-72
2023/04/03 02:11:49;;;;;;;4.25;2.72;;;;;;;9.84;87.86;100478.25;4956271;28;20058;-72
2023/04/03 02:14:17;;;;;;;4.43;3.20;;;;;;;9.79;87.05;100470.91;4972229;28;20046;-72
2023/04/03 02:16:45;;;;;;;4.38;3.00;;;;;;;9.72;89.43;100467.66;4972877;28;20508;-72
2023/04/03 02:19:13;;;;;;;4.53;3.20;;;;;;;9.70;88.96;100464.34;4974164;28;20047;-72
2023/04/03 02:21:41;;;;;;;3.72;2.50;;;;;;;9.66;90.31;100475.84;4956781;28;20069;-72
2023/04/03 02:24:10;;;;;;;3.88;2.60;;;;;;;9.65;89.39;100473.38;4973832;28;20053;-72
2023/04/03 02:26:38;;;;;;;4.45;3.05;;;;;;;9.75;87.45;100478.00;4973678;28;20055;-72
2023/04/03 02:29:05;;;;;;;4.68;3.20;;;;;;;9.81;89.11;100471.44;4973902;28;20397;-72
2023/04/03 02:31:35;;;;;;;6.03;3.22;;;;;;;9.77;89.28;100470.34;4972625;28;20500;-72
2023/04/03 02:34:03;;;;;;;4.18;2.78;;;;;;;9.67;88.29;100472.03;4972595;28;20043;-72
2023/04/03 02:36:31;;;;;;;4.70;3.25;;;;;;;9.64;88.01;100472.56;4973435;28;20043;-72
2023/04/03 02:39:04;;;;;;;4.93;2.88;;;;;;;9.60;87.81;100476.97;4972638;28;20061;-72
2023/04/03 02:41:37;;;;;;;3.80;3.15;;;;;;;9.56;86.21;100475.88;4972039;28;20049;-72
2023/04/03 02:44:12;;;;;;;4.10;2.85;;;;;;;9.57;86.18;100476.69;4955111;28;20047;-72
2023/04/03 02:46:40;;;;;;;3.65;2.75;;;;;;;9.52;86.88;100481.06;4955927;28;20050;-72
2023/04/03 02:49:08;;;;;;;4.30;3.20;;;;;;;9.51;87.09;100484.06;4955788;28;20053;-72
2023/04/03 02:51:36;;;;;;;4.38;2.83;;;;;;;9.49;86.93;100464.41;4971972;28;20405;-72
2023/04/03 02:54:04;;;;;;;3.13;2.67;;;;;;;9.45;85.92;100466.03;4971387;28;20490;-72
2023/04/03 02:56:34;;;;;;;3.78;2.70;;;;;;;9.40;86.04;100466.88;4954572;28;20051;-72
2023/04/03 02:59:02;;;;;;;4.25;2.78;;;;;;;9.51;84.67;100473.97;4939661;28;20062;-73
2023/04/03 03:01:32;;;;;;;3.25;2.63;;;;;;;9.56;86.28;100470.41;4971502;28;20034;-72
2023/04/03 03:04:00;;;;;;;4.72;2.75;;;;;;;9.54;86.13;100476.13;4972943;28;20054;-72
2023/04/03 03:06:28;;;;;;;3.80;2.85;;;;;;;9.58;86.11;100484.59;4971248;28;20043;-72
2023/04/03 03:08:56;;;;;;;3.75;2.70;;;;;;;9.67;82.89;100482.94;4972983;28;20047;-72
2023/04/03 03:11:25;;;;;;;3.28;2.65;;;;;;;9.65;85.01;100481.59;4972313;28;20046;-72
2023/04/03 03:13:53;;;;;;;3.97;2.42;;;;;;;9.53;85.77;100477.22;4971589;28;20046;-72
2023/04/03 03:16:21;;;;;;;3.00;2.47;;;;;;;9.50;85.48;100482.44;4972607;28;20051;-73
2023/04/03 03:18:49;;;;;;;2.35;2.15;;;;;;;9.38;87.45;100480.81;4972490;28;20050;-72
2023/04/03 03:21:17;;;;;;;3.38;2.63;;;;;;;9.30;87.06;100484.09;4972957;28;20043;-72
2023/04/03 03:23:45;;;;;;;2.90;2.45;;;;;;;9.32;87.82;100481.06;4955345;28;20062;-72
2023/04/03 03:26:14;;;;;;;3.42;2.55;;;;;;;9.26;87.51;100478.38;4954733;28;20054;-72
2023/04/03 03:28:42;;;;;;;3.03;2.38;;;;;;;9.24;87.26;100485.19;4972812;28;20054;-73
2023/04/03 03:31:12;;;;;;;4.60;2.80;;;;;;;9.27;87.17;100476.44;4971248;28;20063;-72
2023/04/03 03:33:41;;;;;;;2.65;2.22;;;;;;;9.20;89.55;100474.00;4971668;28;20050;-72
2023/04/03 03:36:09;;;;;;;2.97;2.70;;;;;;;9.19;88.43;100479.72;4972638;28;20053;-72
2023/04/03 03:38:37;;;;;;;4.03;2.72;;;;;;;9.18;88.08;100476.16;4972533;28;20465;-73
2023/04/03 03:41:06;;;;;;;3.08;2.38;;;;;;;9.16;88.57;100483.00;4955778;28;20397;-72
2023/04/03 03:43:35;;;;;;;3.00;2.60;;;;;;;9.16;89.14;100491.19;4955621;28;20576;-72
2023/04/03 03:46:05;;;;;;;2.47;2.28;;;;;;;9.19;89.35;100488.72;4970429;28;20034;-72
2023/04/03 03:48:33;;;;;;;4.10;2.88;;;;;;;9.22;88.09;100487.34;4954976;28;20406;-72
2023/04/03 03:51:01;;;;;;;3.72;2.60;;;;;;;9.25;89.66;100489.56;4955467;28;20070;-73
2023/04/03 03:53:34;;;;;;;5.05;2.55;;;;;;;9.30;88.91;100489.56;4955391;28;20045;-72
2023/04/03 03:56:06;;;;;;;3.10;2.47;;;;;;;9.38;88.40;100493.63;4957607;28;20073;-72
2023/04/03 03:58:36;;;;;;;3.17;2.40;;;;;;;9.42;87.22;100497.47;4977600;28;20050;-72
2023/04/03 04:01:06;;;;;;;5.50;2.50;;;;;;;9.52;83.88;100500.19;4972070;28;20500;-72
2023/04/03 04:03:39;;;;;;;3.38;2.25;;;;;;;9.79;80.99;100499.03;4971296;28;20050;-72
2023/04/03 04:06:09;;;;;;;4.88;2.50;;;;;;;9.84;81.12;100509.16;4971819;28;20074;-72
2023/04/03 04:08:37;;;;;;;3.67;2.78;;;;;;;9.95;79.29;100505.31;4954314;28;20504;-72
2023/04/03 04:11:08;;;;;;;2.85;2.10;;;;;;;10.10;80.36;100511.81;4954745;28;20047;-72
2023/04/03 04:13:37;;;;;;;3.70;2.55;;;;;;;10.17;79.32;100514.25;4970700;28;20043;-72
2023/04/03 04:16:06;;;;;;;4.63;2.35;;;;;;;10.18;80.00;100516.69;4970629;28;20046;-72
2023/04/03 04:18:34;;;;;;;4.10;2.45;;;;;;;10.18;79.05;100510.44;4954866;28;20050;-72
2023/04/03 04:21:02;;;;;;;2.88;1.98;;;;;;;10.22;79.71;100508.78;4972306;28;20054;-72
2023/04/03 04:23:30;;;;;;;2.97;2.25;;;;;;;10.16;79.59;100505.22;4970923;28;20047;-72
2023/04/03 04:26:00;;;;;;;4.35;2.05;;;;;;;9.99;78.58;100499.28;4954687;28;20046;-72
2023/04/03 04:28:32;;;;;;;4.85;2.22;;;;;;;9.95;77.79;100496.28;4969905;28;20050;-72
2023/04/03 04:31:03;;;;;;;4.60;2.10;;;;;;;10.06;78.13;100500.63;4954943;28;20047;-75
2023/04/03 04:33:32;;;;;;;3.65;1.58;;;;;;;10.15;77.97;100503.59;4954567;28;20461;-75
2023/04/03 04:36:03;;;;;;;4.35;1.98;;;;;;;10.25;78.03;100505.47;4951953;28;20370;-75
2023/04/03 04:38:32;;;;;;;4.18;1.95;;;;;;;10.23;76.39;100504.94;4965258;28;20047;-75
2023/04/03 04:41:00;;;;;;;4.88;1.92;;;;;;;10.19;77.45;100503.84;4938565;28;20066;-75
2023/04/03 04:43:28;;;;;;;2.28;1.35;;;;;;;10.59;78.64;100512.19;4954472;28;20051;-77
2023/04/03 04:46:07;;;;;;;2.83;1.55;;;;;;;11.19;75.80;100516.72;4955371;28;20517;-77
2023/04/03 04:48:41;;;;;;;4.25;1.58;;;;;;;11.56;74.61;100512.59;4974446;28;20501;-77
2023/04/03 04:51:10;;;;;;;3.00;1.35;;;;;;;11.81;72.54;100512.63;4975150;28;20054;-77
2023/04/03 04:53:39;;;;;;;1.65;1.52;;;;;;;12.08;70.73;100522.25;4954814;28;20374;-77
2023/04/03 04:56:09;;;;;;;2.60;1.00;;;;;;;12.06;69.56;100517.06;4963980;28;20047;-77
2023/04/03 04:58:39;;;;;;;0.85;0.85;;;;;;;12.22;69.46;100519.66;4964173;28;20043;-77
2023/04/03 05:01:10;;;;;;;2.03;1.13;;;;;;;12.36;68.74;100517.81;4963245;28;20039;-78
2023/04/03 05:03:50;;;;;;;1.13;1.00;;;;;;;12.46;67.47;100529.78;4956900;28;20055;-78
2023/04/03 05:06:19;;;;;;;1.55;1.00;;;;;;;12.48;67.56;100533.03;4968661;28;20402;-79
2023/04/03 05:08:47;;;;;;;1.15;1.05;;;;;;;12.47;67.12;100534.16;4973785;28;20050;-78
2023/04/03 05:11:16;;;;;;;3.05;0.98;;;;;;;12.57;67.53;100535.94;4968931;28;20169;-78
2023/04/03 05:13:47;;;;;;;1.95;1.00;;;;;;;12.58;65.76;100532.91;4962275;28;20046;-78
2023/04/03 05:16:15;;;;;;;1.13;1.02;;;;;;;12.73;66.65;100536.56;4954984;28;20066;-78
2023/04/03 05:18:43;;;;;;;1.73;1.20;;;;;;;12.74;66.69;100538.19;4962142;28;20058;-78
2023/04/03 05:21:18;;;;;;;4.95;1.50;;;;;;;12.74;66.43;100543.66;4957525;28;20054;-79
2023/04/03 05:23:47;;;;;;;1.75;1.50;;;;;;;12.69;66.12;100546.47;4955302;29;20047;-79
2023/04/03 05:26:15;;;;;;;2.05;1.52;;;;;;;12.52;66.70;100550.56;4955938;29;20431;-79
2023/04/03 05:28:45;;;;;;;2.50;1.77;;;;;;;12.68;67.16;100555.84;4955012;29;20043;-79
2023/04/03 05:31:14;;;;;;;1.60;1.50;;;;;;;12.60;66.94;100555.38;4949396;28;20046;-78
2023/04/03 05:33:42;;;;;;;3.10;1.65;;;;;;;12.73;66.37;100561.25;4955817;28;20608;-79
2023/04/03 05:36:15;;;;;;;2.92;1.55;;;;;;;12.75;67.02;100564.53;4974408;28;20046;-79
2023/04/03 05:38:46;;;;;;;3.75;1.58;;;;;;;12.72;67.65;100565.13;4958048;28;20047;-78
2023/04/03 05:41:15;;;;;;;1.45;1.35;;;;;;;12.79;67.45;100573.81;4972840;28;20053;-78
2023/04/03 05:43:46;;;;;;;2.22;1.60;;;;;;;12.95;66.28;100568.13;4955112;28;20051;-78
2023/04/03 05:46:17;;;;;;;7.68;1.77;;;;;;;13.01;65.94;100565.00;4973907;28;20042;-81
2023/04/03 05:48:49;;;;;;;2.92;1.27;;;;;;;13.20;65.60;100574.34;4957877;28;20050;-81
2023/04/03 05:51:25;;;;;;;2.47;1.40;;;;;;;13.20;64.79;100561.41;4974086;28;20038;-81
2023/04/03 05:54:05;;;;;;;1.27;1.10;;;;;;;13.36;65.24;100569.44;4957959;28;20046;-81
2023/04/03 05:56:33;;;;;;;2.75;1.70;;;;;;;13.48;64.31;100560.78;4975265;28;20138;-81
2023/04/03 05:59:02;;;;;;;2.45;1.58;;;;;;;13.62;64.14;100558.03;4974801;28;20046;-81
2023/04/03 06:01:30;;;;;;;3.90;1.23;;;;;;;13.74;63.17;100568.56;4973491;28;20042;-81
2023/04/03 06:03:58;;;;;;;2.60;1.60;;;;;;;13.65;63.40;100560.19;4974736;28;20418;-81
2023/04/03 06:06:57;;;;;;;1.73;1.33;;;;;;;13.56;63.43;100565.56;4957338;28;20046;-81
2023/04/03 06:09:28;;;;;;;2.50;1.20;;;;;;;13.84;63.36;100568.41;4973486;28;20054;-81
2023/04/03 06:12:00;;;;;;;3.33;1.33;;;;;;;13.82;63.07;100570.63;4957476;28;20050;-81
2023/04/03 06:14:30;;;;;;;3.28;1.30;;;;;;;13.94;63.59;100573.69;4973315;28;20047;-81
2023/04/03 06:16:59;;;;;;;1.73;1.08;;;;;;;13.75;63.22;100576.53;4974507;28;20394;-81
2023/04/03 06:19:27;;;;;;;1.35;0.85;;;;;;;13.66;63.76;100572.81;4974702;28;20069;-81
2023/04/03 06:21:57;;;;;;;0.73;0.70;;;;;;;13.94;63.60;100575.66;4957298;28;20047;-81
2023/04/03 06:24:25;;;;;;;1.15;0.95;;;;;;;13.81;64.69;100575.31;4973088;28;20039;-81
2023/04/03 06:26:53;;;;;;;2.10;0.90;;;;;;;13.61;66.12;100570.16;4974027;28;20513;-81
2023/04/03 06:29:21;;;;;;;1.05;0.95;;;;;;;13.69;66.01;100578.53;4957049;28;20055;-81
2023/04/03 06:31:51;;;;;;;5.55;1.20;;;;;;;13.89;66.27;100582.03;4974335;28;20043;-81
2023/04/03 06:34:19;;;;;;;3.55;1.50;;;;;;;13.62;66.02;100569.88;4974169;28;20042;-80
2023/04/03 06:36:48;;;;;;;2.38;1.33;;;;;;;13.31;68.17;100578.59;4974260;28;20046;-81
2023/04/03 06:39:25;;;;;;;1.70;1.05;;;;;;;13.67;67.42;100589.03;4956759;28;20516;-81
2023/04/03 06:41:53;;;;;;;1.05;0.95;;;;;;;13.53;68.06;100579.91;4974069;28;20059;-81
2023/04/03 06:44:29;;;;;;;3.50;1.38;;;;;;;13.78;67.04;100575.91;4974043;28;20047;-81
2023/04/03 06:46:57;;;;;;;3.22;1.70;;;;;;;13.70;67.74;100582.91;4973644;28;20055;-81
2023/04/03 06:49:25;;;;;;;1.52;1.35;;;;;;;13.65;67.64;100577.50;4973874;28;20062;-81
2023/04/03 06:51:53;;;;;;;1.73;1.08;;;;;;;13.64;68.86;100577.81;4973904;28;20046;-81
2023/04/03 06:54:21;;;;;;;3.15;1.73;;;;;;;13.97;67.87;100573.09;4956808;28;20050;-81
2023/04/03 06:56:50;;;;;;;2.72;1.33;;;;;;;13.88;66.89;100580.41;4973967;28;20043;-81
2023/04/03 06:59:18;;;;;;;2.38;1.08;;;;;;;13.80;67.64;100578.38;4973872;28;20051;-81
2023/04/03 07:01:46;;;;;;;1.27;0.90;;;;;;;13.65;68.30;100590.44;4972704;28;20065;-81
2023/04/03 07:04:14;;;;;;;1.20;1.10;;;;;;;13.61;68.18;100586.66;4973723;28;20042;-82
2023/04/03 07:06:42;;;;;;;2.15;1.20;;;;;;;13.71;68.42;100581.00;4973642;28;20043;-81
2023/04/03 07:09:11;;;;;;;4.82;1.52;;;;;;;13.98;68.36;100579.41;4972926;28;20046;-81
2023/04/03 07:11:39;;;;;;;3.63;1.30;;;;;;;14.01;67.00;100589.00;4973605;28;20046;-81
2023/04/03 07:14:07;;;;;;;2.45;1.17;;;;;;;14.20;66.85;100586.19;4973631;28;20046;-81
2023/04/03 07:16:35;;;;;;;4.97;1.10;;;;;;;14.09;66.62;100591.88;4973559;28;20504;-81
2023/04/03 07:19:03;;;;;;;3.72;1.33;;;;;;;13.63;67.51;100573.44;4973590;28;20047;-81
2023/04/03 07:21:31;;;;;;;2.45;1.20;;;;;;;14.02;67.14;100601.66;4973505;28;20049;-81
2023/04/03 07:24:00;;;;;;;1.58;1.10;;;;;;;14.03;66.42;100606.03;4973472;28;20046;-82
2023/04/03 07:26:28;;;;;;;3.22;1.13;;;;;;;13.89;65.17;100606.81;4972994;28;20042;-81
2023/04/03 07:28:56;;;;;;;2.42;1.35;;;;;;;14.00;65.06;100598.38;4973370;28;20520;-82
2023/04/03 07:31:24;;;;;;;3.80;1.25;;;;;;;13.93;64.81;100604.28;4973360;28;20047;-82
2023/04/03 07:33:52;;;;;;;4.25;1.30;;;;;;;14.19;63.95;100610.16;4973396;28;20398;-81
2023/04/03 07:36:22;;;;;;;2.05;1.70;;;;;;;13.89;64.41;100620.56;4956386;28;20047;-81
2023/04/03 07:38:50;;;;;;;1.85;1.25;;;;;;;13.78;65.55;100608.13;4973268;28;20492;-82
2023/04/03 07:41:22;;;;;;;1.80;1.30;;;;;;;14.07;64.47;100613.38;4972141;28;20050;-81
2023/04/03 07:43:50;;;;;;;2.78;1.60;;;;;;;14.15;64.56;100627.53;4973295;28;20378;-82
2023/04/03 07:46:18;;;;;;;1.88;1.67;;;;;;;14.21;64.35;100618.91;4973138;28;20050;-82
2023/04/03 07:48:46;;;;;;;3.33;1.85;;;;;;;14.00;65.53;100607.47;4973192;28;20054;-81
2023/04/03 07:51:14;;;;;;;2.42;1.75;;;;;;;13.92;65.75;100608.97;4973241;28;20054;-82
2023/04/03 07:53:42;;;;;;;2.85;1.45;;;;;;;14.47;64.39;100615.66;4973182;28;20406;-81
2023/04/03 07:56:11;;;;;;;6.03;1.98;;;;;;;14.24;64.86;100618.28;4971948;28;20068;-82
2023/04/03 07:58:39;;;;;;;2.72;2.15;;;;;;;14.27;65.63;100616.06;4973001;28;20489;-81
2023/04/03 08:01:07;;;;;;;2.67;2.10;;;;;;;14.11;65.41;100621.84;4971915;28;20039;-81
2023/04/03 08:03:35;;;;;;;2.58;2.13;;;;;;;13.98;66.08;100613.25;4973152;28;20054;-81
2023/04/03 08:06:05;;;;;;;6.30;2.38;;;;;;;14.31;65.33;100612.38;4971762;28;20402;-81
2023/04/03 08:08:38;;;;;;;1.83;1.50;;;;;;;14.12;65.06;100626.22;4973239;28;20051;-81
2023/04/03 08:11:07;;;;;;;4.30;1.70;;;;;;;14.19;64.68;100618.41;4973127;28;20512;-81
2023/04/03 08:13:36;;;;;;;4.40;1.77;;;;;;;14.07;63.92;100609.78;4973091;28;20066;-81
2023/04/03 08:16:09;;;;;;;3.75;1.70;;;;;;;14.19;62.89;100617.56;4973170;28;20047;-82
2023/04/03 08:18:38;;;;;;;2.25;1.58;;;;;;;14.62;62.53;100616.50;4973076;28;20051;-81
2023/04/03 08:21:09;;;;;;;3.45;1.75;;;;;;;14.64;61.38;100623.31;4974880;28;20055;-82
2023/04/03 08:23:39;;;;;;;4.85;1.73;;;;;;;14.88;60.49;100618.72;4975486;28;20038;-82
2023/04/03 08:26:13;;;;;;;6.93;1.50;;;;;;;14.60;60.81;100630.56;4976497;28;20043;-82
2023/04/03 08:28:41;;;;;;;2.47;1.40;;;;;;;15.15;60.26;100630.84;4976623;28;20047;-81
2023/04/03 08:31:13;;;;;;;2.58;1.48;;;;;;;14.56;60.19;100623.22;4976441;28;20047;-82
2023/04/03 08:33:41;;;;;;;2.45;1.60;;;;;;;14.38;60.65;100632.06;4976439;28;20053;-82
2023/04/03 08:36:19;;;;;;;4.03;1.80;;;;;;;14.62;61.27;100617.28;4976433;28;20057;-81
2023/04/03 08:38:48;;;;;;;3.20;1.52;;;;;;;14.87;60.39;100628.13;4975432;28;20167;-81
2023/04/03 08:41:19;;;;;;;2.10;1.90;;;;;;;14.97;59.95;100632.59;4976441;28;20057;-82
2023/04/03 08:43:58;;;;;;;2.70;1.90;;;;;;;14.84;59.69;100634.22;4976433;28;20050;-82
2023/04/03 08:46:34;;;;;;;3.63;2.00;;;;;;;14.71;60.87;100620.13;4976152;28;20504;-82
2023/04/03 08:49:04;;;;;;;2.25;1.80;;;;;;;14.68;59.49;100622.69;4976213;28;20047;-80
2023/04/03 08:51:32;;;;;;;2.92;1.80;;;;;;;14.72;59.31;100618.22;4974852;28;20053;-81
2023/04/03 08:54:16;;;;;;;3.75;2.00;;;;;;;14.45;60.11;100625.34;4976096;28;20042;-81
2023/04/03 08:56:43;;;;;;;3.40;2.00;;;;;;;14.73;59.30;100626.19;4959000;28;20054;-82
2023/04/03 08:59:24;;;;;;;3.25;1.98;;;;;;;14.78;59.16;100630.78;4975970;28;20051;-82
2023/04/03 09:01:53;;;;;;;3.25;1.63;;;;;;;14.78;59.34;100634.34;4976055;28;20512;-81
2023/04/03 09:04:21;;;;;;;3.03;2.10;;;;;;;14.70;59.04;100618.50;4976058;28;20050;-82
2023/04/03 09:06:57;;;;;;;2.85;1.92;;;;;;;15.27;58.45;100622.84;4974714;28;20047;-82
2023/04/03 09:09:36;;;;;;;2.55;2.05;;;;;;;15.17;57.24;100629.38;4975952;28;20047;-82
2023/04/03 09:12:42;;;;;;;2.97;1.90;;;;;;;15.14;56.93;100612.66;4975726;28;20053;-82
2023/04/03 09:15:17;;;;;;;4.60;2.42;;;;;;;15.40;57.60;100634.13;4945981;28;20059;-82
2023/04/03 09:17:58;;;;;;;2.28;1.83;;;;;;;15.29;57.56;100641.81;4975740;28;20560;-82
2023/04/03 09:20:51;;;;;;;7.25;2.25;;;;;;;15.25;57.83;100619.56;4975598;28;20520;-82
2023/04/03 09:23:37;;;;;;;2.05;1.80;;;;;;;15.27;56.93;100622.84;4975742;28;20043;-82
2023/04/03 09:26:14;;;;;;;5.15;2.28;;;;;;;15.42;56.24;100623.59;4975423;28;20075;-82
2023/04/03 09:28:44;;;;;;;3.08;1.83;;;;;;;15.20;54.30;100622.44;4975535;28;20050;-82
2023/04/03 09:31:22;;;;;;;3.28;2.00;;;;;;;15.52;54.92;100617.84;4975636;28;20058;-83
2023/04/03 09:33:54;;;;;;;4.22;1.70;;;;;;;15.44;54.23;100616.66;4974881;28;20050;-82
2023/04/03 09:36:43;;;;;;;2.78;2.00;;;;;;;15.50;55.20;100620.09;4957796;28;20055;-82
2023/04/03 09:39:24;;;;;;;6.32;2.08;;;;;;;15.33;54.57;100620.78;4975409;28;20047;-82
2023/04/03 09:42:01;;;;;;;2.75;1.70;;;;;;;15.39;55.78;100624.25;4975308;28;20375;-83
2023/04/03 09:44:35;;;;;;;2.28;1.92;;;;;;;15.68;54.06;100610.00;4975168;28;20426;-82
2023/04/03 09:47:23;;;;;;;;;;;;;;;16.05;54.38;100617.41;4975358;28;20050;-82
2023/04/03 09:50:24;;;;;;;3.63;1.83;;;;;;;15.84;53.44;100615.94;4974994;28;19933;-82
2023/04/03 09:52:52;;;;;;;3.00;1.90;;;;;;;15.97;53.40;100616.22;4975043;28;20050;-82
2023/04/03 09:55:31;;;;;;;3.38;1.50;;;;;;;15.89;53.81;100614.19;4975037;28;20077;-82
2023/04/03 09:58:03;;;;;;;3.80;1.92;;;;;;;16.07;53.22;100604.91;4957789;28;20051;-82
2023/04/03 10:00:38;;;;;;;3.63;1.88;;;;;;;15.96;53.96;100606.31;4974934;28;20066;-82
2023/04/03 10:03:35;;;;;;;1.73;1.40;;;;;;;16.06;52.98;100610.75;4974951;28;20058;-82
2023/04/03 10:06:03;;;;;;;2.65;1.40;;;;;;;16.32;51.69;100616.41;4974821;28;20050;-82
2023/04/03 10:08:34;;;;;;;2.90;2.15;;;;;;;16.21;51.82;100599.31;4974848;28;20058;-82
2023/04/03 10:11:16;;;;;;;4.68;2.17;;;;;;;16.35;51.18;100603.91;4974558;28;20414;-82
2023/04/03 10:14:16;;;;;;;2.10;1.90;;;;;;;16.29;51.55;100603.25;4974738;28;20212;-82
2023/04/03 10:16:52;;;;;;;4.50;1.70;;;;;;;16.29;51.46;100605.19;4974575;28;20054;-83
2023/04/03 10:19:20;;;;;;;3.22;2.08;;;;;;;16.15;50.67;100606.09;4957075;28;20053;-82
2023/04/03 10:22:00;;;;;;;3.00;1.75;;;;;;;16.39;51.20;100594.66;4974471;28;20047;-82
2023/04/03 10:24:49;;;;;;;2.50;2.17;;;;;;;15.70;50.86;100598.66;4971233;28;20042;-82
2023/04/03 10:27:39;;;;;;;3.83;3.53;;;;;;;16.07;50.92;100593.03;4973734;28;20054;-82
2023/04/03 10:30:33;;;;;;;4.43;1.63;;;;;;;16.22;50.32;100581.59;4972204;28;20055;-82
2023/04/03 10:33:27;;;;;;;2.83;1.77;;;;;;;16.35;52.26;100588.16;4952911;28;20062;-82
2023/04/03 10:35:58;;;;;;;3.35;2.53;;;;;;;16.55;51.45;100593.41;4956538;28;20050;-82
2023/04/03 10:38:32;;;;;;;1.92;1.67;;;;;;;16.52;51.48;100592.09;4974119;28;20371;-82
2023/04/03 10:41:04;;;;;;;2.40;1.90;;;;;;;16.58;51.52;100596.38;4974123;28;20053;-82
2023/04/03 10:43:57;;;;;;;5.32;1.83;;;;;;;16.92;50.66;100580.16;4973331;28;20482;-82
2023/04/03 10:46:35;;;;;;;1.52;1.42;;;;;;;17.08;49.90;100599.88;4976396;28;20054;-82
2023/04/03 10:49:33;;;;;;;1.70;1.60;;;;;;;16.79;48.83;100595.75;4981113;28;20046;-81
2023/04/03 10:52:00;;;;;;;4.38;2.25;;;;;;;16.71;48.73;100578.00;4981327;28;20050;-81
2023/04/03 10:54:51;;;;;;;5.10;2.10;;;;;;;16.62;49.76;100579.94;4981112;28;20043;-82
2023/04/03 10:57:22;;;;;;;2.95;1.77;;;;;;;16.47;48.76;100579.25;4974947;28;20058;-83
2023/04/03 10:59:53;;;;;;;4.18;1.92;;;;;;;16.52;49.58;100576.34;4981029;28;20050;-81
2023/04/03 11:02:37;;;;;;;2.92;2.10;;;;;;;16.96;47.91;100583.91;4982775;28;20047;-81
2023/04/03 11:05:39;;;;;;;4.10;1.80;;;;;;;16.66;47.60;100576.22;4978714;28;20058;-82
2023/04/03 11:08:31;;;;;;;4.07;1.90;;;;;;;16.38;49.29;100565.41;4990484;28;20046;-80
2023/04/03 11:11:04;;;;;;;2.55;1.90;;;;;;;16.61;48.87;100568.06;4993112;28;20046;-81
2023/04/03 11:13:43;;;;;;;3.70;2.17;;;;;;;16.50;49.43;100561.22;4991317;28;20045;-81
2023/04/03 11:16:20;;;;;;;3.40;1.70;;;;;;;16.45;48.44;100564.94;4992647;28;20061;-81
2023/04/03 11:19:23;;;;;;;3.60;1.98;;;;;;;16.19;49.77;100551.06;4993024;28;20057;-81
2023/04/03 11:22:05;;;;;;;6.07;2.00;;;;;;;16.14;48.57;100565.00;4971829;28;20093;-81
2023/04/03 11:24:36;;;;;;;1.90;1.70;;;;;;;15.69;48.42;100561.19;4992836;28;20042;-81
2023/04/03 11:27:05;;;;;;;3.05;1.55;;;;;;;15.78;50.47;100552.94;4985798;28;20058;-81
2023/04/03 11:29:37;;;;;;;6.93;2.83;;;;;;;16.03;49.47;100548.69;4956395;28;20070;-81
2023/04/03 11:32:11;;;;;;;2.72;1.85;;;;;;;16.03;48.52;100556.97;4973374;28;20050;-81
2023/04/03 11:34:46;;;;;;;6.80;2.40;;;;;;;16.37;47.68;100552.75;4973491;28;20367;-81
2023/04/03 11:37:37;;;;;;;6.43;2.10;;;;;;;16.49;47.93;100549.38;4973393;28;20047;-81
2023/04/03 11:40:09;;;;;;;6.75;2.30;;;;;;;16.71;47.86;100541.28;4962400;28;20049;-81
2023/04/03 11:42:39;;;;;;;2.78;1.95;;;;;;;17.15;47.72;100550.44;4955260;28;20062;-81
2023/04/03 11:45:29;;;;;;;4.13;1.92;;;;;;;17.37;46.17;100543.13;4973218;28;20051;-81
2023/04/03 11:47:59;;;;;;;2.30;1.90;;;;;;;16.63;47.07;100540.94;4973254;28;20070;-81
2023/04/03 11:50:47;;;;;;;3.50;1.98;;;;;;;17.02;46.92;100543.09;4962311;28;20047;-82